Terminal Aerodrome Forecast
Issued by NWS Grand Forks, ND

Home | Current Version | Previous Version | Graphics & Text | Print | Product List | Glossary On
Versions: 1 2 3 4 5 6 7 8 9 10 11 12 13 14 15 16 17
000
FTUS43 KFGF 222341
TAFFAR
TAF
KFAR 222341Z 2300/2324 36013G21KT P6SM OVC015
     FM230300 35011KT P6SM BKN025
     FM230400 36011KT P6SM BKN035
     FM231000 01009KT P6SM BKN035=

USA.gov is the U.S. government's official web portal to all federal, state and local government web resources and services.